createdAt,value
2019-03-28T00:00:08.143Z,0.00
2019-03-28T00:01:07.855Z,0.00
2019-03-28T00:02:07.882Z,0.00
2019-03-28T00:03:07.922Z,0.00
2019-03-28T00:04:07.977Z,0.00
2019-03-28T00:05:08.141Z,0.00
2019-03-28T00:06:08.038Z,0.00
2019-03-28T00:07:08.079Z,0.00
2019-03-28T00:08:08.118Z,0.00
2019-03-28T00:09:08.169Z,0.00
2019-03-28T00:10:08.194Z,0.00
2019-03-28T00:11:08.236Z,0.00
2019-03-28T00:12:08.275Z,0.00
2019-03-28T00:13:08.315Z,0.00
2019-03-28T00:14:08.359Z,0.00
2019-03-28T00:15:08.437Z,0.00
2019-03-28T00:16:08.431Z,0.00
2019-03-28T00:17:08.470Z,0.00
2019-03-28T00:18:08.519Z,0.00
2019-03-28T00:19:08.548Z,0.00
2019-03-28T00:20:08.590Z,0.00
2019-03-28T00:21:08.634Z,0.00
2019-03-28T00:22:08.669Z,0.00
2019-03-28T00:23:08.705Z,0.00
2019-03-28T00:24:08.747Z,0.00
2019-03-28T00:25:08.786Z,0.00
2019-03-28T00:26:08.842Z,0.00
2019-03-28T00:27:08.862Z,0.00
2019-03-28T00:28:08.902Z,0.00
2019-03-28T00:29:08.941Z,0.00
2019-03-28T00:30:08.985Z,0.00
2019-03-28T00:31:09.519Z,0.00
2019-03-28T00:32:09.065Z,0.00
2019-03-28T00:33:09.104Z,0.00
2019-03-28T00:34:09.134Z,0.00
2019-03-28T00:35:09.193Z,0.00
2019-03-28T00:36:09.215Z,0.00
2019-03-28T00:37:09.275Z,0.00
2019-03-28T00:38:09.290Z,0.00
2019-03-28T00:39:09.330Z,0.00
2019-03-28T00:40:09.371Z,0.00
2019-03-28T00:41:09.413Z,0.00
2019-03-28T00:42:10.226Z,0.00
2019-03-28T00:43:09.491Z,0.00
2019-03-28T00:44:09.525Z,0.00
2019-03-28T00:45:09.564Z,0.00
2019-03-28T00:46:09.604Z,0.00
2019-03-28T00:47:09.645Z,0.00
2019-03-28T00:48:09.683Z,0.00
2019-03-28T00:49:09.723Z,0.00
2019-03-28T00:50:09.761Z,0.00
2019-03-28T00:51:09.802Z,0.00
2019-03-28T00:52:09.838Z,0.00
2019-03-28T00:53:09.881Z,0.00
2019-03-28T00:54:09.920Z,0.00
2019-03-28T00:55:09.955Z,0.00
2019-03-28T00:56:09.995Z,0.00
2019-03-28T00:57:10.035Z,0.00
2019-03-28T00:58:10.071Z,0.00
2019-03-28T00:59:10.115Z,0.00
2019-03-28T01:00:10.149Z,0.00
2019-03-28T01:01:10.191Z,0.00
2019-03-28T01:02:10.239Z,0.00
2019-03-28T01:03:10.800Z,0.00
2019-03-28T01:04:10.307Z,0.00
2019-03-28T01:05:10.344Z,0.00
2019-03-28T01:06:10.383Z,0.00
2019-03-28T01:07:10.422Z,0.00
2019-03-28T01:08:10.460Z,0.00
2019-03-28T01:09:10.502Z,0.00
2019-03-28T01:10:10.538Z,0.00
2019-03-28T01:11:10.580Z,0.00
2019-03-28T01:12:10.615Z,0.00
2019-03-28T01:13:10.655Z,0.00
2019-03-28T01:14:10.762Z,0.00
2019-03-28T01:15:10.754Z,0.00
2019-03-28T01:16:10.782Z,0.00
2019-03-28T01:17:10.811Z,0.00
2019-03-28T01:18:10.848Z,0.00
2019-03-28T01:19:10.897Z,0.00
2019-03-28T01:20:10.929Z,0.00
2019-03-28T01:21:10.974Z,0.00
2019-03-28T01:22:11.006Z,0.00
2019-03-28T01:23:11.044Z,0.00
2019-03-28T01:24:11.227Z,0.00
2019-03-28T01:25:11.128Z,0.00
2019-03-28T01:26:11.165Z,0.00
2019-03-28T01:27:11.200Z,0.00
2019-03-28T01:28:11.242Z,0.00
2019-03-28T01:29:11.279Z,0.00
2019-03-28T01:30:11.316Z,0.00
2019-03-28T01:31:11.356Z,0.00
2019-03-28T01:32:11.395Z,0.00
2019-03-28T01:33:11.433Z,0.00
2019-03-28T01:34:11.477Z,0.00
2019-03-28T01:35:11.511Z,0.00
2019-03-28T01:36:11.559Z,0.00
2019-03-28T01:37:11.595Z,0.00
2019-03-28T01:38:11.629Z,0.00
2019-03-28T01:39:11.674Z,0.00
2019-03-28T01:40:11.708Z,0.00
2019-03-28T01:41:11.748Z,0.00
2019-03-28T01:42:11.783Z,0.00
2019-03-28T01:43:11.823Z,0.00
2019-03-28T01:44:11.865Z,0.00
2019-03-28T01:45:11.902Z,0.00
2019-03-28T01:46:11.938Z,0.00
2019-03-28T01:47:11.979Z,0.00
2019-03-28T01:48:12.021Z,0.00
2019-03-28T01:49:12.056Z,0.00
2019-03-28T01:50:12.095Z,0.00
2019-03-28T01:51:12.145Z,0.00
2019-03-28T01:52:12.173Z,0.00
2019-03-28T01:53:12.351Z,0.00
2019-03-28T01:54:12.252Z,0.00
2019-03-28T01:55:12.290Z,0.00
2019-03-28T01:56:12.329Z,0.00
2019-03-28T01:57:12.933Z,0.00
2019-03-28T01:58:12.415Z,0.00
2019-03-28T01:59:12.457Z,0.00
2019-03-28T02:00:12.614Z,0.00
2019-03-28T02:01:12.522Z,0.00
2019-03-28T02:02:12.560Z,0.00
2019-03-28T02:03:12.599Z,0.00
2019-03-28T02:04:12.637Z,0.00
2019-03-28T02:05:12.678Z,0.00
2019-03-28T02:06:12.720Z,0.00
2019-03-28T02:07:12.760Z,0.00
2019-03-28T02:08:12.803Z,0.00
2019-03-28T02:09:12.843Z,0.00
2019-03-28T02:10:12.880Z,0.00
2019-03-28T02:11:12.909Z,0.00
2019-03-28T02:12:12.949Z,0.00
2019-03-28T02:13:12.989Z,0.00
2019-03-28T02:14:13.027Z,0.00
2019-03-28T02:15:13.066Z,0.00
2019-03-28T02:16:13.105Z,0.00
2019-03-28T02:17:13.151Z,0.00
2019-03-28T02:18:13.184Z,0.00
2019-03-28T02:19:13.221Z,0.00
2019-03-28T02:20:13.262Z,0.00
2019-03-28T02:21:13.311Z,0.00
2019-03-28T02:22:13.348Z,0.00
2019-03-28T02:23:13.377Z,0.00
2019-03-28T02:24:13.418Z,0.00
2019-03-28T02:25:13.458Z,0.00
2019-03-28T02:26:13.495Z,0.00
2019-03-28T02:27:23.468Z,0.00
2019-03-28T02:28:13.573Z,0.00
2019-03-28T02:29:13.611Z,0.00
2019-03-28T02:30:13.660Z,0.00
2019-03-28T02:31:13.690Z,0.00
2019-03-28T02:32:13.728Z,0.00
2019-03-28T02:33:13.769Z,0.00
2019-03-28T02:34:13.809Z,0.00
2019-03-28T02:35:13.845Z,0.00
2019-03-28T02:36:13.883Z,0.00
2019-03-28T02:37:13.923Z,0.00
2019-03-28T02:38:13.964Z,0.00
2019-03-28T02:39:14.010Z,0.00
2019-03-28T02:40:14.041Z,0.00
2019-03-28T02:41:14.233Z,0.00
2019-03-28T02:42:14.116Z,0.00
2019-03-28T02:43:14.168Z,0.00
2019-03-28T02:44:14.202Z,0.00
2019-03-28T02:45:14.235Z,0.00
2019-03-28T02:46:14.273Z,0.00
2019-03-28T02:47:14.314Z,0.00
2019-03-28T02:48:14.352Z,0.00
2019-03-28T02:49:14.393Z,0.00
2019-03-28T02:50:14.430Z,0.00
2019-03-28T02:51:14.469Z,0.00
2019-03-28T02:52:14.508Z,0.00
2019-03-28T02:53:14.548Z,0.00
2019-03-28T02:54:14.589Z,0.00
2019-03-28T02:55:14.631Z,0.00
2019-03-28T02:56:15.813Z,0.00
2019-03-28T02:57:14.703Z,0.00
2019-03-28T02:58:14.750Z,0.00
2019-03-28T02:59:14.779Z,0.00
2019-03-28T03:00:14.817Z,0.00
2019-03-28T03:01:14.860Z,0.00
2019-03-28T03:02:14.897Z,0.00
2019-03-28T03:03:14.935Z,0.00
2019-03-28T03:04:14.975Z,0.00
2019-03-28T03:05:15.013Z,0.00
2019-03-28T03:06:15.051Z,0.00
2019-03-28T03:07:15.095Z,0.00
2019-03-28T03:08:15.134Z,0.00
2019-03-28T03:09:15.169Z,0.00
2019-03-28T03:10:15.206Z,0.00
2019-03-28T03:11:15.245Z,0.00
2019-03-28T03:12:15.285Z,0.00
2019-03-28T03:13:15.337Z,0.00
2019-03-28T03:14:15.363Z,0.00
2019-03-28T03:15:15.404Z,0.00
2019-03-28T03:16:15.440Z,0.00
2019-03-28T03:17:15.917Z,0.00
2019-03-28T03:18:15.536Z,0.00
2019-03-28T03:19:15.558Z,0.00
2019-03-28T03:20:15.758Z,0.00
2019-03-28T03:21:15.644Z,0.00
2019-03-28T03:22:15.678Z,0.00
2019-03-28T03:23:15.716Z,0.00
2019-03-28T03:24:15.753Z,0.00
2019-03-28T03:25:15.792Z,0.00
2019-03-28T03:26:15.832Z,0.00
2019-03-28T03:27:15.871Z,0.00
2019-03-28T03:28:15.917Z,0.00
2019-03-28T03:29:15.961Z,0.00
2019-03-28T03:30:15.994Z,0.00
2019-03-28T03:31:21.055Z,0.00
2019-03-28T03:32:16.065Z,0.00
2019-03-28T03:33:16.103Z,0.00
2019-03-28T03:34:16.143Z,0.00
2019-03-28T03:35:16.200Z,0.00
2019-03-28T03:36:16.221Z,0.00
2019-03-28T03:37:16.265Z,0.00
2019-03-28T03:38:16.298Z,0.00
2019-03-28T03:39:16.388Z,0.00
2019-03-28T03:40:16.376Z,0.00
2019-03-28T03:41:16.417Z,0.00
2019-03-28T03:42:16.460Z,0.00
2019-03-28T03:43:16.501Z,0.00
2019-03-28T03:44:16.539Z,0.00
2019-03-28T03:45:16.571Z,0.00
2019-03-28T03:46:16.610Z,0.00
2019-03-28T03:47:16.651Z,0.00
2019-03-28T03:48:16.701Z,0.00
2019-03-28T03:49:16.738Z,0.00
2019-03-28T03:50:16.765Z,0.00
2019-03-28T03:51:16.811Z,0.00
2019-03-28T03:52:16.846Z,0.00
2019-03-28T03:53:16.899Z,0.00
2019-03-28T03:54:16.926Z,0.00
2019-03-28T03:55:16.980Z,0.00
2019-03-28T03:56:17.003Z,0.00
2019-03-28T03:57:17.040Z,0.00
2019-03-28T03:58:18.673Z,0.00
2019-03-28T03:59:17.118Z,0.00
2019-03-28T04:00:17.157Z,0.00
2019-03-28T04:01:17.195Z,0.00
2019-03-28T04:02:17.236Z,0.00
2019-03-28T04:03:17.274Z,0.00
2019-03-28T04:04:17.316Z,0.00
2019-03-28T04:05:17.501Z,0.00
2019-03-28T04:06:17.388Z,0.00
2019-03-28T04:07:17.431Z,0.00
2019-03-28T04:08:17.468Z,0.00
2019-03-28T04:09:17.511Z,0.00
2019-03-28T04:10:17.545Z,0.00
2019-03-28T04:11:17.600Z,0.00
2019-03-28T04:12:17.624Z,0.00
2019-03-28T04:13:17.661Z,0.00
2019-03-28T04:14:17.700Z,0.00
2019-03-28T04:15:17.749Z,0.00
2019-03-28T04:16:17.781Z,0.00
2019-03-28T04:17:17.815Z,0.00
2019-03-28T04:18:21.680Z,0.00
2019-03-28T04:19:17.897Z,0.00
2019-03-28T04:20:17.938Z,0.00
2019-03-28T04:21:17.981Z,0.00
2019-03-28T04:22:18.064Z,0.00
2019-03-28T04:23:18.064Z,0.00
2019-03-28T04:24:18.090Z,0.00
2019-03-28T04:25:18.138Z,0.00
2019-03-28T04:26:18.177Z,0.00
2019-03-28T04:27:18.211Z,0.00
2019-03-28T04:28:30.852Z,0.00
2019-03-28T04:29:18.295Z,0.00
2019-03-28T04:30:18.327Z,0.00
2019-03-28T04:31:18.366Z,0.00
2019-03-28T04:32:18.402Z,0.00
2019-03-28T04:33:18.442Z,0.00
2019-03-28T04:34:18.480Z,0.00
2019-03-28T04:35:18.518Z,0.00
2019-03-28T04:36:18.610Z,0.00
2019-03-28T04:37:18.597Z,0.00
2019-03-28T04:38:18.634Z,0.00
2019-03-28T04:39:18.681Z,0.00
2019-03-28T04:40:18.715Z,0.00
2019-03-28T04:41:18.751Z,0.00
2019-03-28T04:42:18.789Z,0.00
2019-03-28T04:43:18.830Z,0.00
2019-03-28T04:44:18.872Z,0.00
2019-03-28T04:45:18.908Z,0.00
2019-03-28T04:46:18.945Z,0.00
2019-03-28T04:47:18.983Z,0.00
2019-03-28T04:48:19.025Z,0.00
2019-03-28T04:49:19.067Z,0.00
2019-03-28T04:50:19.102Z,0.00
2019-03-28T04:51:19.145Z,0.00
2019-03-28T04:52:19.438Z,0.00
2019-03-28T04:53:19.217Z,0.00
2019-03-28T04:54:19.258Z,0.00
2019-03-28T04:55:19.295Z,0.00
2019-03-28T04:56:19.345Z,0.00
2019-03-28T04:57:19.374Z,0.00
2019-03-28T04:58:21.761Z,0.00
2019-03-28T04:59:19.451Z,0.00
2019-03-28T05:00:19.489Z,0.00
2019-03-28T05:01:19.532Z,0.00
2019-03-28T05:02:19.567Z,0.00
2019-03-28T05:03:19.612Z,0.00
2019-03-28T05:04:21.210Z,0.00
2019-03-28T05:05:19.693Z,0.00
2019-03-28T05:06:19.722Z,0.00
2019-03-28T05:07:19.761Z,0.00
2019-03-28T05:08:19.799Z,0.00
2019-03-28T05:09:19.839Z,0.00
2019-03-28T05:10:19.878Z,0.00
2019-03-28T05:11:19.917Z,5.63
2019-03-28T05:12:19.954Z,5.63
2019-03-28T05:13:20.348Z,5.63
2019-03-28T05:14:20.035Z,5.63
2019-03-28T05:15:20.578Z,5.63
2019-03-28T05:16:20.113Z,5.63
2019-03-28T05:17:20.148Z,5.63
2019-03-28T05:18:20.188Z,5.63
2019-03-28T05:19:20.230Z,5.63
2019-03-28T05:20:20.265Z,5.63
2019-03-28T05:21:20.307Z,11.25
2019-03-28T05:22:20.346Z,11.25
2019-03-28T05:23:20.383Z,11.25
2019-03-28T05:24:20.423Z,11.25
2019-03-28T05:25:20.460Z,11.25
2019-03-28T05:26:20.500Z,11.25
2019-03-28T05:27:20.538Z,11.25
2019-03-28T05:28:20.577Z,11.25
2019-03-28T05:29:20.616Z,16.88
2019-03-28T05:30:20.655Z,16.88
2019-03-28T05:31:20.702Z,16.88
2019-03-28T05:32:20.740Z,22.50
2019-03-28T05:33:20.773Z,22.50
2019-03-28T05:34:20.811Z,22.50
2019-03-28T05:35:20.857Z,22.50
2019-03-28T05:36:20.896Z,28.13
2019-03-28T05:37:20.926Z,28.13
2019-03-28T05:38:20.967Z,28.13
2019-03-28T05:39:21.003Z,28.13
2019-03-28T05:40:22.770Z,28.13
2019-03-28T05:41:21.082Z,28.13
2019-03-28T05:42:21.181Z,28.13
2019-03-28T05:43:21.161Z,33.75
2019-03-28T05:44:21.199Z,33.75
2019-03-28T05:45:21.239Z,28.13
2019-03-28T05:46:21.277Z,33.75
2019-03-28T05:47:22.294Z,33.75
2019-03-28T05:48:21.359Z,33.75
2019-03-28T05:49:21.395Z,28.13
2019-03-28T05:50:21.432Z,28.13
2019-03-28T05:51:21.478Z,28.13
2019-03-28T05:52:21.513Z,28.13
2019-03-28T05:53:21.550Z,33.75
2019-03-28T05:54:21.588Z,33.75
2019-03-28T05:55:21.655Z,33.75
2019-03-28T05:56:21.667Z,39.38
2019-03-28T05:57:21.709Z,33.75
2019-03-28T05:58:21.744Z,33.75
2019-03-28T05:59:21.785Z,28.13
2019-03-28T06:00:21.829Z,28.13
2019-03-28T06:01:21.867Z,28.13
2019-03-28T06:02:21.912Z,33.75
2019-03-28T06:03:21.953Z,39.38
2019-03-28T06:04:21.979Z,39.38
2019-03-28T06:05:22.019Z,39.38
2019-03-28T06:06:22.057Z,39.38
2019-03-28T06:07:22.096Z,45.00
2019-03-28T06:08:22.135Z,50.63
2019-03-28T06:09:22.174Z,56.25
2019-03-28T06:10:22.213Z,56.25
2019-03-28T06:11:22.251Z,61.88
2019-03-28T06:12:22.291Z,67.50
2019-03-28T06:13:22.339Z,73.13
2019-03-28T06:14:22.371Z,78.75
2019-03-28T06:15:22.574Z,84.38
2019-03-28T06:16:22.448Z,84.38
2019-03-28T06:17:22.550Z,90.00
2019-03-28T06:18:22.524Z,90.00
2019-03-28T06:19:22.565Z,95.63
2019-03-28T06:20:22.606Z,95.63
2019-03-28T06:21:22.643Z,95.63
2019-03-28T06:22:22.681Z,95.63
2019-03-28T06:23:22.722Z,101.25
2019-03-28T06:24:22.763Z,101.25
2019-03-28T06:25:23.192Z,106.88
2019-03-28T06:26:22.845Z,106.88
2019-03-28T06:27:22.879Z,106.88
2019-03-28T06:28:22.920Z,106.88
2019-03-28T06:29:24.409Z,106.88
2019-03-28T06:30:22.999Z,112.50
2019-03-28T06:31:23.039Z,112.50
2019-03-28T06:32:23.084Z,112.50
2019-03-28T06:33:23.117Z,112.50
2019-03-28T06:34:23.155Z,112.50
2019-03-28T06:35:23.195Z,112.50
2019-03-28T06:36:23.235Z,118.13
2019-03-28T06:37:23.272Z,118.13
2019-03-28T06:38:24.264Z,118.13
2019-03-28T06:39:23.350Z,123.75
2019-03-28T06:40:23.407Z,123.75
2019-03-28T06:41:23.447Z,123.75
2019-03-28T06:42:23.469Z,118.13
2019-03-28T06:43:23.507Z,118.13
2019-03-28T06:44:23.549Z,123.75
2019-03-28T06:45:23.588Z,123.75
2019-03-28T06:46:23.627Z,129.38
2019-03-28T06:47:23.666Z,129.38
2019-03-28T06:48:23.716Z,129.38
2019-03-28T06:49:23.748Z,129.38
2019-03-28T06:50:23.791Z,129.38
2019-03-28T06:51:23.834Z,129.38
2019-03-28T06:52:23.870Z,129.38
2019-03-28T06:53:23.906Z,129.38
2019-03-28T06:54:24.406Z,135.00
2019-03-28T06:55:24.304Z,135.00
2019-03-28T06:56:25.444Z,135.00
2019-03-28T06:57:24.065Z,140.63
2019-03-28T06:58:24.112Z,146.25
2019-03-28T06:59:36.521Z,151.88
2019-03-28T07:00:24.186Z,157.50
2019-03-28T07:01:24.224Z,163.13
2019-03-28T07:02:24.263Z,168.75
2019-03-28T07:03:24.305Z,168.75
2019-03-28T07:04:24.347Z,174.38
2019-03-28T07:05:24.385Z,174.38
2019-03-28T07:06:24.422Z,174.38
2019-03-28T07:07:24.461Z,174.38
2019-03-28T07:08:25.386Z,180.00
2019-03-28T07:09:24.543Z,185.63
2019-03-28T07:10:24.597Z,191.25
2019-03-28T07:11:24.631Z,191.25
2019-03-28T07:12:24.668Z,196.88
2019-03-28T07:13:24.706Z,196.88
2019-03-28T07:14:24.742Z,196.88
2019-03-28T07:15:24.784Z,202.50
2019-03-28T07:16:24.822Z,208.13
2019-03-28T07:17:24.874Z,208.13
2019-03-28T07:18:24.912Z,213.75
2019-03-28T07:19:24.944Z,213.75
2019-03-28T07:20:24.984Z,219.38
2019-03-28T07:21:25.025Z,219.38
2019-03-28T07:22:25.068Z,225.00
2019-03-28T07:23:25.104Z,230.63
2019-03-28T07:24:25.148Z,230.63
2019-03-28T07:25:25.748Z,236.25
2019-03-28T07:26:26.219Z,236.25
2019-03-28T07:27:25.271Z,241.88
2019-03-28T07:28:25.310Z,241.88
2019-03-28T07:29:25.547Z,241.88
2019-03-28T07:30:25.389Z,236.25
2019-03-28T07:31:25.430Z,241.88
2019-03-28T07:32:25.472Z,241.88
2019-03-28T07:33:25.512Z,241.88
2019-03-28T07:34:25.552Z,241.88
2019-03-28T07:35:25.595Z,241.88
2019-03-28T07:36:25.631Z,241.88
2019-03-28T07:37:28.063Z,247.50
2019-03-28T07:38:25.711Z,247.50
2019-03-28T07:39:25.753Z,247.50
2019-03-28T07:40:25.866Z,253.13
2019-03-28T07:41:25.838Z,253.13
2019-03-28T07:42:25.878Z,258.75
2019-03-28T07:43:25.992Z,258.75
2019-03-28T07:44:25.959Z,258.75
2019-03-28T07:45:26.001Z,264.38
2019-03-28T07:46:26.044Z,264.38
2019-03-28T07:47:26.088Z,264.38
2019-03-28T07:48:26.126Z,264.38
2019-03-28T07:49:26.174Z,275.63
2019-03-28T07:50:26.210Z,275.63
2019-03-28T07:51:26.309Z,281.25
2019-03-28T07:52:27.531Z,281.25
2019-03-28T07:53:26.331Z,281.25
2019-03-28T07:54:26.374Z,281.25
2019-03-28T07:55:26.415Z,286.88
2019-03-28T07:56:26.458Z,286.88
2019-03-28T07:57:26.499Z,286.88
2019-03-28T07:58:26.549Z,292.50
2019-03-28T07:59:26.583Z,292.50
2019-03-28T08:00:26.626Z,292.50
2019-03-28T08:01:26.668Z,292.50
2019-03-28T08:02:26.706Z,292.50
2019-03-28T08:03:27.500Z,292.50
2019-03-28T08:04:26.790Z,292.50
2019-03-28T08:05:26.833Z,298.13
2019-03-28T08:06:26.875Z,286.88
2019-03-28T08:07:26.914Z,286.88
2019-03-28T08:08:38.305Z,281.25
2019-03-28T08:09:36.643Z,281.25
2019-03-28T08:10:27.045Z,275.63
2019-03-28T08:11:27.247Z,275.63
2019-03-28T08:12:27.129Z,275.63
2019-03-28T08:13:27.216Z,275.63
2019-03-28T08:14:27.216Z,275.63
2019-03-28T08:15:27.259Z,281.25
2019-03-28T08:16:29.007Z,281.25
2019-03-28T08:17:27.344Z,281.25
2019-03-28T08:18:27.375Z,281.25
2019-03-28T08:19:27.426Z,281.25
2019-03-28T08:20:27.569Z,275.63
2019-03-28T08:21:27.502Z,275.63
2019-03-28T08:22:29.713Z,275.63
2019-03-28T08:23:27.587Z,270.00
2019-03-28T08:24:27.629Z,275.63
2019-03-28T08:25:27.671Z,275.63
2019-03-28T08:26:30.258Z,275.63
2019-03-28T08:27:27.787Z,270.00
2019-03-28T08:28:27.803Z,270.00
2019-03-28T08:29:27.840Z,264.38
2019-03-28T08:30:27.880Z,258.75
2019-03-28T08:31:27.924Z,258.75
2019-03-28T08:32:27.974Z,258.75
2019-03-28T08:33:28.010Z,253.13
2019-03-28T08:34:31.133Z,253.13
2019-03-28T08:35:28.096Z,264.38
2019-03-28T08:36:28.139Z,275.63
2019-03-28T08:37:28.180Z,275.63
2019-03-28T08:38:28.218Z,275.63
2019-03-28T08:39:28.538Z,275.63
2019-03-28T08:40:28.302Z,275.63
2019-03-28T08:41:28.346Z,270.00
2019-03-28T08:42:28.387Z,270.00
2019-03-28T08:43:28.430Z,264.38
2019-03-28T08:44:28.473Z,258.75
2019-03-28T08:45:28.515Z,247.50
2019-03-28T08:46:28.559Z,236.25
2019-03-28T08:47:28.601Z,230.63
2019-03-28T08:48:28.644Z,219.38
2019-03-28T08:49:28.702Z,208.13
2019-03-28T08:50:28.741Z,202.50
2019-03-28T08:51:28.770Z,196.88
2019-03-28T08:52:28.815Z,191.25
2019-03-28T08:53:28.855Z,191.25
2019-03-28T08:54:28.911Z,191.25
2019-03-28T08:55:28.943Z,202.50
2019-03-28T08:56:28.982Z,213.75
2019-03-28T08:57:29.024Z,219.38
2019-03-28T08:58:29.066Z,225.00
2019-03-28T08:59:29.110Z,219.38
2019-03-28T09:00:35.244Z,225.00
2019-03-28T09:01:29.201Z,213.75
2019-03-28T09:02:29.233Z,208.13
2019-03-28T09:03:29.274Z,202.50
2019-03-28T09:04:29.321Z,196.88
2019-03-28T09:05:29.362Z,191.25
2019-03-28T09:06:29.403Z,185.63
2019-03-28T09:07:29.443Z,180.00
2019-03-28T09:08:29.487Z,174.38
2019-03-28T09:09:29.528Z,168.75
2019-03-28T09:10:29.664Z,168.75
2019-03-28T09:11:29.718Z,163.13
2019-03-28T09:12:29.654Z,157.50
2019-03-28T09:13:29.698Z,163.13
2019-03-28T09:14:31.891Z,168.75
2019-03-28T09:15:42.652Z,174.38
2019-03-28T09:16:29.827Z,185.63
2019-03-28T09:17:29.867Z,191.25
2019-03-28T09:18:29.906Z,191.25
2019-03-28T09:19:29.947Z,196.88
2019-03-28T09:20:29.988Z,191.25
2019-03-28T09:21:30.036Z,196.88
2019-03-28T09:22:30.073Z,191.25
2019-03-28T09:23:30.118Z,196.88
2019-03-28T09:24:30.163Z,202.50
2019-03-28T09:25:30.202Z,196.88
2019-03-28T09:26:30.240Z,191.25
2019-03-28T09:27:30.287Z,180.00
2019-03-28T09:28:30.326Z,168.75
2019-03-28T09:29:30.374Z,163.13
2019-03-28T09:30:30.414Z,157.50
2019-03-28T09:31:30.451Z,157.50
2019-03-28T09:32:30.492Z,157.50
2019-03-28T09:33:30.541Z,163.13
2019-03-28T09:34:30.577Z,174.38
2019-03-28T09:35:30.653Z,185.63
2019-03-28T09:36:30.667Z,208.13
2019-03-28T09:37:30.705Z,225.00
2019-03-28T09:38:30.742Z,236.25
2019-03-28T09:39:30.791Z,253.13
2019-03-28T09:40:30.831Z,270.00
2019-03-28T09:41:30.869Z,270.00
2019-03-28T09:42:30.912Z,275.63
2019-03-28T09:43:30.955Z,286.88
2019-03-28T09:44:31.151Z,292.50
2019-03-28T09:45:31.037Z,298.13
2019-03-28T09:46:31.080Z,303.75
2019-03-28T09:47:31.122Z,315.00
2019-03-28T09:48:31.163Z,326.25
2019-03-28T09:49:31.206Z,331.88
2019-03-28T09:50:31.247Z,348.75
2019-03-28T09:51:31.290Z,360.00
2019-03-28T09:52:31.333Z,388.13
2019-03-28T09:53:31.382Z,393.75
2019-03-28T09:54:31.418Z,405.00
2019-03-28T09:55:31.458Z,421.88
2019-03-28T09:56:31.500Z,438.75
2019-03-28T09:57:31.544Z,455.63
2019-03-28T09:58:31.589Z,466.88
2019-03-28T09:59:31.628Z,478.13
2019-03-28T10:00:32.998Z,472.50
2019-03-28T10:01:31.779Z,478.13
2019-03-28T10:02:31.758Z,483.75
2019-03-28T10:03:31.800Z,472.50
2019-03-28T10:04:31.850Z,466.88
2019-03-28T10:05:31.889Z,466.88
2019-03-28T10:06:31.930Z,478.13
2019-03-28T10:07:31.972Z,483.75
2019-03-28T10:08:32.019Z,489.38
2019-03-28T10:09:32.101Z,472.50
2019-03-28T10:10:32.103Z,455.63
2019-03-28T10:11:32.154Z,444.38
2019-03-28T10:12:34.230Z,438.75
2019-03-28T10:13:32.237Z,433.13
2019-03-28T10:14:32.276Z,427.50
2019-03-28T10:15:32.320Z,427.50
2019-03-28T10:16:32.366Z,416.25
2019-03-28T10:17:32.408Z,410.63
2019-03-28T10:18:32.453Z,399.38
2019-03-28T10:19:32.496Z,393.75
2019-03-28T10:20:32.547Z,388.13
2019-03-28T10:21:32.588Z,388.13
2019-03-28T10:22:32.628Z,393.75
2019-03-28T10:23:32.672Z,405.00
2019-03-28T10:24:32.717Z,405.00
2019-03-28T10:25:32.764Z,410.63
2019-03-28T10:26:32.807Z,410.63
2019-03-28T10:27:32.866Z,405.00
2019-03-28T10:28:32.894Z,410.63
2019-03-28T10:29:32.938Z,410.63
2019-03-28T10:30:32.980Z,410.63
2019-03-28T10:31:33.032Z,410.63
2019-03-28T10:32:33.070Z,416.25
2019-03-28T10:33:33.114Z,427.50
2019-03-28T10:34:33.208Z,438.75
2019-03-28T10:35:33.201Z,433.13
2019-03-28T10:36:33.261Z,433.13
2019-03-28T10:37:33.292Z,427.50
2019-03-28T10:38:33.340Z,421.88
2019-03-28T10:39:33.398Z,421.88
2019-03-28T10:40:33.425Z,421.88
2019-03-28T10:41:33.518Z,421.88
2019-03-28T10:42:33.512Z,410.63
2019-03-28T10:43:33.555Z,399.38
2019-03-28T10:44:33.610Z,388.13
2019-03-28T10:45:33.904Z,382.50
2019-03-28T10:46:33.688Z,376.88
2019-03-28T10:47:33.735Z,371.25
2019-03-28T10:48:33.790Z,371.25
2019-03-28T10:49:33.825Z,371.25
2019-03-28T10:50:41.475Z,376.88
2019-03-28T10:51:33.911Z,382.50
2019-03-28T10:52:33.956Z,393.75
2019-03-28T10:53:34.005Z,388.13
2019-03-28T10:54:34.044Z,382.50
2019-03-28T10:55:34.089Z,376.88
2019-03-28T10:56:34.134Z,360.00
2019-03-28T10:57:34.280Z,343.13
2019-03-28T10:58:35.137Z,331.88
2019-03-28T10:59:34.266Z,326.25
2019-03-28T11:00:34.315Z,315.00
2019-03-28T11:01:48.189Z,315.00
2019-03-28T11:02:34.398Z,326.25
2019-03-28T11:03:34.451Z,348.75
2019-03-28T11:04:34.497Z,360.00
2019-03-28T11:05:34.533Z,371.25
2019-03-28T11:06:34.577Z,365.63
2019-03-28T11:07:34.628Z,343.13
2019-03-28T11:08:36.581Z,326.25
2019-03-28T11:09:34.863Z,303.75
2019-03-28T11:10:34.757Z,286.88
2019-03-28T11:11:34.800Z,298.13
2019-03-28T11:12:34.843Z,326.25
2019-03-28T11:13:34.890Z,337.50
2019-03-28T11:14:34.931Z,348.75
2019-03-28T11:15:34.985Z,354.38
2019-03-28T11:16:35.019Z,354.38
2019-03-28T11:17:35.073Z,337.50
2019-03-28T11:18:35.210Z,331.88
2019-03-28T11:19:35.156Z,326.25
2019-03-28T11:20:36.077Z,331.88
2019-03-28T11:21:35.242Z,337.50
2019-03-28T11:22:35.289Z,348.75
2019-03-28T11:23:35.329Z,365.63
2019-03-28T11:24:35.374Z,371.25
2019-03-28T11:25:35.419Z,371.25
2019-03-28T11:26:35.462Z,376.88
2019-03-28T11:27:35.507Z,382.50
2019-03-28T11:28:35.582Z,376.88
2019-03-28T11:29:35.596Z,399.38
2019-03-28T11:30:35.655Z,433.13
2019-03-28T11:31:45.664Z,461.25
2019-03-28T11:32:36.089Z,478.13
2019-03-28T11:33:35.774Z,489.38
2019-03-28T11:34:35.817Z,478.13
2019-03-28T11:35:35.862Z,472.50
2019-03-28T11:36:35.908Z,478.13
2019-03-28T11:37:35.958Z,478.13
2019-03-28T11:38:35.995Z,466.88
2019-03-28T11:39:36.039Z,478.13
2019-03-28T11:40:36.091Z,466.88
2019-03-28T11:41:36.132Z,455.63
2019-03-28T11:42:36.174Z,427.50
2019-03-28T11:43:36.216Z,410.63
2019-03-28T11:44:36.261Z,393.75
2019-03-28T11:45:36.311Z,382.50
2019-03-28T11:46:36.351Z,382.50
2019-03-28T11:47:36.399Z,371.25
2019-03-28T11:48:36.442Z,348.75
2019-03-28T11:49:36.485Z,326.25
2019-03-28T11:50:36.528Z,337.50
2019-03-28T11:51:36.613Z,360.00
2019-03-28T11:52:36.635Z,376.88
2019-03-28T11:53:36.662Z,405.00
2019-03-28T11:54:36.708Z,421.88
2019-03-28T11:55:36.753Z,438.75
2019-03-28T11:56:36.796Z,450.00
2019-03-28T11:57:36.845Z,466.88
2019-03-28T11:58:36.889Z,478.13
2019-03-28T11:59:36.931Z,483.75
2019-03-28T12:00:36.975Z,483.75
2019-03-28T12:01:37.020Z,472.50
2019-03-28T12:02:37.063Z,466.88
2019-03-28T12:03:37.108Z,450.00
2019-03-28T12:04:38.745Z,433.13
2019-03-28T12:05:37.198Z,405.00
2019-03-28T12:06:37.243Z,388.13
2019-03-28T12:07:37.287Z,382.50
2019-03-28T12:08:37.334Z,388.13
2019-03-28T12:09:38.021Z,399.38
2019-03-28T12:10:37.425Z,421.88
2019-03-28T12:11:37.479Z,438.75
2019-03-28T12:12:37.511Z,450.00
2019-03-28T12:13:44.625Z,461.25
2019-03-28T12:14:37.630Z,466.88
2019-03-28T12:15:37.647Z,466.88
2019-03-28T12:16:37.706Z,489.38
2019-03-28T12:17:37.738Z,511.88
2019-03-28T12:18:37.782Z,511.88
2019-03-28T12:19:37.841Z,506.25
2019-03-28T12:20:37.875Z,506.25
2019-03-28T12:21:37.920Z,500.63
2019-03-28T12:22:37.967Z,500.63
2019-03-28T12:23:38.016Z,500.63
2019-03-28T12:24:38.155Z,500.63
2019-03-28T12:25:38.101Z,500.63
2019-03-28T12:26:38.146Z,489.38
2019-03-28T12:27:38.207Z,478.13
2019-03-28T12:28:38.238Z,472.50
2019-03-28T12:29:38.314Z,461.25
2019-03-28T12:30:38.324Z,450.00
2019-03-28T12:31:38.373Z,455.63
2019-03-28T12:32:38.418Z,438.75
2019-03-28T12:33:38.464Z,427.50
2019-03-28T12:34:38.506Z,427.50
2019-03-28T12:35:38.564Z,444.38
2019-03-28T12:36:38.601Z,444.38
2019-03-28T12:37:38.647Z,450.00
2019-03-28T12:38:38.693Z,444.38
2019-03-28T12:39:38.746Z,438.75
2019-03-28T12:40:38.781Z,438.75
2019-03-28T12:41:38.831Z,433.13
2019-03-28T12:42:38.875Z,410.63
2019-03-28T12:43:38.918Z,393.75
2019-03-28T12:44:38.965Z,382.50
2019-03-28T12:45:39.059Z,365.63
2019-03-28T12:46:39.053Z,348.75
2019-03-28T12:47:42.633Z,343.13
2019-03-28T12:48:39.149Z,343.13
2019-03-28T12:49:39.201Z,337.50
2019-03-28T12:50:39.247Z,315.00